Time;durP1;ratioP1;P1;durP2;ratioP2;P2;SDS_P1;SDS_P2;PMS_P1;PMS_P2;Temp;Humidity;BMP_temperature;BMP_pressure;BME280_temperature;BME280_humidity;BME280_pressure;Samples;Min_cycle;Max_cycle;Signal;HPM_P1;HPM_P2
2024/04/08 00:00:04;;;;;;;12.50;7.50;;;;;;;13.45;55.63;100798.23;108078;1254;75278;-68
2024/04/08 00:02:31;;;;;;;15.60;8.00;;;;;;;13.40;55.86;100801.59;108119;1254;68978;-68
2024/04/08 00:04:59;;;;;;;10.00;7.00;;;;;;;13.41;55.78;100799.81;108176;1253;71479;-69
2024/04/08 00:07:26;;;;;;;12.80;7.10;;;;;;;13.54;55.42;100797.17;108092;1254;59902;-69
2024/04/08 00:09:53;;;;;;;12.60;7.70;;;;;;;13.61;55.15;100795.84;108074;1254;61092;-69
2024/04/08 00:12:20;;;;;;;11.10;8.10;;;;;;;13.51;55.34;100787.95;108083;1258;73865;-69
2024/04/08 00:14:48;;;;;;;11.50;7.60;;;;;;;13.41;55.51;100786.73;108108;1254;68889;-68
2024/04/08 00:17:15;;;;;;;13.70;7.60;;;;;;;13.38;55.58;100781.03;108114;1257;71742;-69
2024/04/08 00:19:43;;;;;;;11.60;7.60;;;;;;;13.51;55.33;100777.54;108087;1254;61250;-68
2024/04/08 00:22:12;;;;;;;12.10;7.30;;;;;;;13.50;55.31;100774.42;108084;1254;60651;-68
2024/04/08 00:24:39;;;;;;;13.70;7.70;;;;;;;13.54;55.24;100771.77;108154;1254;74661;-69
2024/04/08 00:27:07;;;;;;;14.80;8.20;;;;;;;13.52;55.32;100777.13;108126;1254;69915;-69
2024/04/08 00:29:34;;;;;;;16.90;7.90;;;;;;;13.55;55.32;100776.52;108048;1253;71665;-68
2024/04/08 00:32:01;;;;;;;12.60;8.00;;;;;;;13.44;55.55;100780.09;107992;1253;61209;-68
2024/04/08 00:34:29;;;;;;;16.60;7.60;;;;;;;13.46;55.52;100785.34;108146;1257;61139;-69
2024/04/08 00:36:56;;;;;;;15.50;7.70;;;;;;;13.51;55.34;100786.36;108225;1256;75151;-67
2024/04/08 00:39:23;;;;;;;15.10;8.60;;;;;;;13.45;55.49;100786.79;108249;1254;69126;-68
2024/04/08 00:41:50;;;;;;;15.80;9.00;;;;;;;13.42;55.42;100788.64;108131;1254;71395;-69
2024/04/08 00:44:18;;;;;;;15.50;9.10;;;;;;;13.50;55.33;100787.63;108120;1253;61257;-67
2024/04/08 00:46:46;;;;;;;13.60;7.90;;;;;;;13.47;55.29;100785.79;108116;1253;61166;-69
2024/04/08 00:49:14;;;;;;;19.40;9.80;;;;;;;13.49;55.36;100787.84;108201;1254;75136;-67
2024/04/08 00:51:42;;;;;;;16.00;9.00;;;;;;;13.55;55.17;100785.86;108129;1254;70574;-68
2024/04/08 00:54:09;;;;;;;14.80;8.80;;;;;;;13.46;55.28;100786.38;108116;1253;72455;-68
2024/04/08 00:56:40;;;;;;;15.40;8.00;;;;;;;13.32;55.53;100783.05;108103;1254;61327;-69
2024/04/08 00:59:08;;;;;;;15.40;7.90;;;;;;;13.36;55.27;100779.00;108123;1253;61267;-69
2024/04/08 01:01:36;;;;;;;12.90;7.70;;;;;;;13.37;55.15;100780.35;108121;1253;73930;-69
2024/04/08 01:04:03;;;;;;;13.40;8.20;;;;;;;13.25;55.44;100777.46;108165;1253;70455;-69
2024/04/08 01:06:31;;;;;;;15.10;8.40;;;;;;;13.29;55.42;100779.97;108136;1254;71779;-68
2024/04/08 01:08:58;;;;;;;16.70;8.60;;;;;;;13.33;55.31;100784.05;108127;1254;61128;-68
2024/04/08 01:11:26;;;;;;;11.90;8.40;;;;;;;13.37;55.23;100783.36;108141;1255;61574;-67
2024/04/08 01:13:54;;;;;;;11.30;7.70;;;;;;;13.27;55.43;100787.05;108147;1254;74017;-66
2024/04/08 01:16:21;;;;;;;13.60;8.50;;;;;;;13.18;55.76;100787.58;108101;1253;70392;-68
2024/04/08 01:18:48;;;;;;;15.10;9.40;;;;;;;13.17;56.00;100787.41;108191;1253;72696;-68
2024/04/08 01:21:16;;;;;;;12.10;8.80;;;;;;;13.19;55.88;100783.83;108109;1253;59933;-68
2024/04/08 01:23:43;;;;;;;13.60;7.80;;;;;;;13.12;55.88;100783.56;108124;1254;60991;-67
2024/04/08 01:26:11;;;;;;;17.90;9.70;;;;;;;13.01;56.16;100780.08;108115;1253;72631;-67
2024/04/08 01:28:38;;;;;;;14.60;8.70;;;;;;;13.01;56.18;100782.54;108118;1254;70725;-67
2024/04/08 01:31:05;;;;;;;14.40;8.40;;;;;;;13.09;56.11;100781.38;108072;1257;72627;-67
2024/04/08 01:33:33;;;;;;;14.20;9.80;;;;;;;13.13;56.03;100783.88;108061;1254;61283;-67
2024/04/08 01:36:00;;;;;;;14.50;9.00;;;;;;;13.17;55.97;100779.34;108155;1252;61141;-67
2024/04/08 01:38:27;;;;;;;17.10;9.10;;;;;;;13.21;55.89;100778.30;108256;1253;74566;-67
2024/04/08 01:40:55;;;;;;;18.50;10.40;;;;;;;13.19;56.00;100776.41;108189;1254;69967;-68
2024/04/08 01:43:22;;;;;;;19.70;9.70;;;;;;;13.21;55.99;100774.96;108086;1254;72825;-68
2024/04/08 01:45:52;;;;;;;17.90;10.20;;;;;;;13.20;56.08;100773.94;108146;1253;62992;-67
2024/04/08 01:48:19;;;;;;;19.40;11.30;;;;;;;13.26;55.96;100768.93;108244;1253;60502;-68
2024/04/08 01:50:46;;;;;;;15.60;9.20;;;;;;;13.39;55.72;100777.46;108210;1254;74569;-67
2024/04/08 01:53:13;;;;;;;20.40;10.80;;;;;;;13.46;55.51;100782.51;108199;1254;69088;-67
2024/04/08 01:55:41;;;;;;;16.70;9.30;;;;;;;13.43;55.55;100780.69;108170;1254;71370;-67
2024/04/08 01:58:09;;;;;;;17.80;9.90;;;;;;;13.45;55.52;100779.02;108261;1254;61147;-67
2024/04/08 02:00:36;;;;;;;14.80;10.30;;;;;;;13.45;55.45;100780.93;108195;1254;61247;-67
2024/04/08 02:03:04;;;;;;;16.60;9.70;;;;;;;13.35;55.68;100781.48;108138;1254;73218;-67
2024/04/08 02:05:31;;;;;;;22.30;10.30;;;;;;;13.33;55.74;100779.11;108164;1253;70812;-68
2024/04/08 02:07:58;;;;;;;20.40;10.90;;;;;;;13.34;55.79;100785.23;108038;1258;72517;-67
2024/04/08 02:10:26;;;;;;;19.10;10.30;;;;;;;13.42;55.68;100790.25;108173;1253;61160;-68
2024/04/08 02:12:53;;;;;;;21.70;11.10;;;;;;;13.42;55.52;100786.16;108136;1254;61863;-68
2024/04/08 02:15:20;;;;;;;18.90;10.50;;;;;;;13.30;55.79;100786.64;108198;1254;73450;-67
2024/04/08 02:17:48;;;;;;;19.70;11.40;;;;;;;13.27;55.88;100785.33;108146;1254;70264;-68
2024/04/08 02:20:15;;;;;;;19.90;10.60;;;;;;;13.29;55.83;100785.98;108014;1258;71704;-68
2024/04/08 02:22:42;;;;;;;21.80;10.80;;;;;;;13.40;55.57;100781.69;108154;1254;61096;-68
2024/04/08 02:25:09;;;;;;;24.20;10.60;;;;;;;13.34;55.74;100780.84;108219;1253;61288;-68
2024/04/08 02:27:37;;;;;;;21.70;11.50;;;;;;;13.38;55.60;100783.69;108241;1256;74601;-69
2024/04/08 02:30:05;;;;;;;22.60;11.80;;;;;;;13.30;55.79;100790.16;108227;1253;70584;-68
2024/04/08 02:32:32;;;;;;;20.20;12.00;;;;;;;13.33;55.80;100787.75;108247;1253;73096;-66
2024/04/08 02:35:00;;;;;;;21.70;12.30;;;;;;;13.36;55.73;100783.41;108189;1254;61220;-66
2024/04/08 02:37:27;;;;;;;18.40;11.80;;;;;;;13.35;55.77;100780.45;108213;1253;61188;-68
2024/04/08 02:39:54;;;;;;;19.40;11.70;;;;;;;13.28;56.04;100782.11;108148;1253;74558;-68
2024/04/08 02:42:22;;;;;;;19.80;11.00;;;;;;;13.32;56.10;100780.20;108212;1254;69936;-67
2024/04/08 02:44:49;;;;;;;21.10;11.50;;;;;;;13.36;55.97;100784.65;108159;1252;73825;-67
2024/04/08 02:47:16;;;;;;;16.80;9.80;;;;;;;13.40;55.86;100788.36;108157;1254;61116;-68
2024/04/08 02:49:44;;;;;;;18.40;11.70;;;;;;;13.48;55.64;100788.58;108170;1256;60351;-68
2024/04/08 02:52:11;;;;;;;17.10;11.30;;;;;;;13.58;55.38;100789.44;108163;1253;76998;-69
2024/04/08 02:54:39;;;;;;;18.30;10.50;;;;;;;13.58;55.37;100795.07;108189;1254;69333;-68
2024/04/08 02:57:06;;;;;;;19.00;10.50;;;;;;;13.48;55.53;100792.82;108160;1253;72512;-68
2024/04/08 02:59:33;;;;;;;18.90;10.70;;;;;;;13.52;55.50;100792.85;108141;1254;61326;-68
2024/04/08 03:02:00;;;;;;;16.60;10.80;;;;;;;13.52;55.46;100791.80;108138;1254;61323;-68
2024/04/08 03:04:28;;;;;;;18.60;10.70;;;;;;;13.53;55.36;100789.63;108152;1254;74650;-68
2024/04/08 03:06:55;;;;;;;15.70;10.20;;;;;;;13.59;55.20;100795.04;108112;1253;70282;-68
2024/04/08 03:09:22;;;;;;;15.60;10.70;;;;;;;13.64;54.98;100793.25;108138;1253;71278;-67
2024/04/08 03:11:49;;;;;;;19.60;9.80;;;;;;;13.68;54.93;100791.52;108100;1254;61797;-68
2024/04/08 03:14:17;;;;;;;14.70;9.30;;;;;;;13.70;54.84;100790.91;108170;1254;61135;-67
2024/04/08 03:16:45;;;;;;;15.10;9.70;;;;;;;13.70;54.83;100786.36;108167;1254;74746;-69
2024/04/08 03:19:13;;;;;;;12.30;8.80;;;;;;;13.75;54.60;100781.17;108144;1254;71431;-68
2024/04/08 03:21:40;;;;;;;17.70;10.90;;;;;;;13.77;54.59;100779.69;108177;1253;72730;-69
2024/04/08 03:24:08;;;;;;;21.10;11.20;;;;;;;13.63;54.93;100783.44;108125;1253;60509;-69
2024/04/08 03:26:37;;;;;;;15.10;10.30;;;;;;;13.63;55.11;100786.60;108236;1253;61493;-69
2024/04/08 03:31:22;;;;;;;18.20;10.40;;;;;;;11.88;60.93;100801.14;105000;1289;600446;-68
2024/04/08 03:33:49;;;;;;;16.70;10.70;;;;;;;13.07;57.09;100802.25;107330;1267;59844;-70
2024/04/08 03:36:17;;;;;;;21.00;11.50;;;;;;;13.07;57.01;100804.92;107333;1265;59048;-68
2024/04/08 03:38:44;;;;;;;18.00;10.00;;;;;;;13.10;57.13;100806.74;107362;1265;71754;-69
2024/04/08 03:41:12;;;;;;;19.90;11.10;;;;;;;13.09;57.22;100806.05;107277;1269;70338;-70
2024/04/08 03:43:39;;;;;;;21.20;11.10;;;;;;;13.12;57.25;100803.48;107333;1266;72677;-69
2024/04/08 03:46:07;;;;;;;14.70;9.20;;;;;;;13.06;57.58;100805.48;107281;1263;194542;-68
2024/04/08 03:48:34;;;;;;;19.80;10.40;;;;;;;13.05;57.74;100802.51;107434;1267;60396;-69
2024/04/08 03:51:11;;;;;;;18.70;10.50;;;;;;;13.07;57.84;100802.60;107966;1257;71791;-66
2024/04/08 03:53:38;;;;;;;21.70;11.00;;;;;;;13.16;57.83;100802.44;107899;1257;70397;-69
2024/04/08 03:56:07;;;;;;;21.90;10.60;;;;;;;13.29;57.67;100799.03;107985;1256;72996;-69
2024/04/08 03:58:40;;;;;;;16.50;9.80;;;;;;;13.28;57.83;100796.23;107991;1257;60308;-69
2024/04/08 04:01:09;;;;;;;17.70;10.80;;;;;;;13.36;57.91;100797.16;107824;1260;59652;-67
2024/04/08 04:03:37;;;;;;;20.30;11.00;;;;;;;13.35;58.07;100801.59;107938;1258;73830;-68
2024/04/08 04:06:05;;;;;;;17.20;9.50;;;;;;;13.36;58.31;100801.73;107998;1257;70878;-68
2024/04/08 04:08:32;;;;;;;44.40;21.50;;;;;;;13.47;58.36;100802.05;107914;1260;72541;-68
2024/04/08 04:11:00;;;;;;;38.70;17.90;;;;;;;13.55;58.70;100801.89;107924;1260;60245;-67
2024/04/08 04:13:27;;;;;;;61.60;29.70;;;;;;;13.72;58.73;100803.53;107880;1257;60379;-69
2024/04/08 04:15:54;;;;;;;58.60;29.00;;;;;;;13.92;58.48;100802.22;107978;1256;72592;-68
2024/04/08 04:18:21;;;;;;;41.30;22.70;;;;;;;14.08;58.59;100805.46;107904;1257;69352;-68
2024/04/08 04:20:49;;;;;;;37.50;21.40;;;;;;;14.23;58.83;100808.73;107859;1257;72656;-67
2024/04/08 04:23:18;;;;;;;32.60;18.30;;;;;;;14.46;59.02;100810.60;107879;1260;59145;-68
2024/04/08 04:25:53;;;;;;;38.60;20.00;;;;;;;14.63;59.28;100808.99;107925;1256;59208;-69
2024/04/08 04:28:20;;;;;;;29.50;16.40;;;;;;;14.89;59.20;100811.92;107877;1257;72932;-69
2024/04/08 04:30:57;;;;;;;24.60;14.60;;;;;;;15.15;59.00;100807.77;107925;1260;70350;-69
2024/04/08 04:33:29;;;;;;;;;;;;;;;15.33;58.84;100813.52;107795;1257;71264;-69
2024/04/08 04:35:59;;;;;;;21.30;13.10;;;;;;;15.62;58.11;100808.09;107768;1257;61241;-69
2024/04/08 04:38:28;;;;;;;21.10;12.60;;;;;;;15.88;57.68;100807.61;107729;1258;60444;-67
2024/04/08 04:41:00;;;;;;;27.10;13.30;;;;;;;16.13;57.16;100809.20;107688;1257;72885;-70
2024/04/08 04:43:30;;;;;;;21.40;13.50;;;;;;;16.42;56.71;100810.95;107791;1257;69136;-69
2024/04/08 04:45:57;;;;;;;22.50;15.00;;;;;;;16.82;55.73;100808.04;107661;1257;71350;-69
2024/04/08 04:48:25;;;;;;;32.50;15.10;;;;;;;17.14;55.11;100808.67;107671;1260;60347;-69
2024/04/08 04:50:53;;;;;;;27.40;14.20;;;;;;;17.48;54.39;100806.84;107737;1257;60378;-70
2024/04/08 04:53:20;;;;;;;28.30;14.10;;;;;;;17.73;53.91;100809.86;107701;1257;74016;-69
2024/04/08 04:55:54;;;;;;;25.20;13.60;;;;;;;17.95;53.57;100811.17;107766;1262;68734;-69
2024/04/08 04:58:22;;;;;;;21.80;13.80;;;;;;;18.20;52.98;100813.80;107730;1257;71378;-70
2024/04/08 05:00:49;;;;;;;25.20;13.50;;;;;;;18.46;52.25;100810.88;107710;1262;61561;-70
2024/04/08 05:03:18;;;;;;;22.40;11.20;;;;;;;18.73;51.56;100810.86;107772;1257;60482;-69
2024/04/08 05:05:56;;;;;;;26.80;13.70;;;;;;;18.80;51.07;100811.02;107783;1257;73826;-70
2024/04/08 05:08:24;;;;;;;24.80;15.20;;;;;;;18.85;50.60;100814.98;107833;1257;69377;-70
2024/04/08 05:10:51;;;;;;;21.80;13.00;;;;;;;18.81;50.55;100815.42;107830;1258;75031;-70
2024/04/08 05:13:19;;;;;;;27.40;13.70;;;;;;;18.97;50.16;100814.61;107810;1256;60981;-70
2024/04/08 05:16:00;;;;;;;23.70;11.60;;;;;;;18.96;49.51;100816.98;107817;1257;60344;-69
2024/04/08 05:18:28;;;;;;;;;;;;;;;18.96;49.29;100816.60;107754;1257;73762;-69
2024/04/08 05:20:56;;;;;;;34.10;14.60;;;;;;;18.98;48.79;100816.18;107989;1255;70083;-69
2024/04/08 05:23:25;;;;;;;31.20;15.40;;;;;;;18.95;48.66;100815.41;107885;1257;73153;-70
2024/04/08 05:25:53;;;;;;;34.20;17.90;;;;;;;18.96;48.46;100814.67;107843;1256;61653;-70
2024/04/08 05:28:21;;;;;;;30.90;17.80;;;;;;;19.10;48.16;100813.11;107873;1255;60786;-69
2024/04/08 05:30:48;;;;;;;25.70;15.80;;;;;;;19.07;48.11;100806.71;107921;1257;74284;-69
2024/04/08 05:33:16;;;;;;;27.50;15.50;;;;;;;19.08;47.95;100805.73;107872;1257;70308;-71
2024/04/08 05:35:46;;;;;;;22.90;12.70;;;;;;;19.20;48.02;100803.25;107880;1256;74856;-70
2024/04/08 05:38:14;;;;;;;25.00;12.60;;;;;;;19.35;47.67;100807.62;107842;1260;61761;-69
2024/04/08 05:40:42;;;;;;;22.60;12.70;;;;;;;19.45;47.40;100807.52;107870;1258;60363;-69
2024/04/08 05:43:15;;;;;;;19.20;11.40;;;;;;;19.58;47.13;100805.61;107852;1260;73904;-71
2024/04/08 05:45:42;;;;;;;24.10;12.10;;;;;;;19.83;46.96;100807.61;107740;1257;70568;-68
2024/04/08 05:48:10;;;;;;;21.50;12.60;;;;;;;20.06;46.55;100809.70;107844;1257;71434;-70
2024/04/08 05:50:37;;;;;;;19.90;11.20;;;;;;;20.38;46.21;100806.46;107879;1256;60751;-68
2024/04/08 05:53:05;;;;;;;20.50;11.50;;;;;;;20.80;45.12;100804.39;107904;1255;60440;-70
2024/04/08 05:55:32;;;;;;;18.70;10.30;;;;;;;21.14;44.17;100808.45;107821;1257;72710;-69
2024/04/08 05:58:00;;;;;;;21.20;9.90;;;;;;;21.48;43.48;100805.54;107871;1256;69480;-70
2024/04/08 06:00:27;;;;;;;19.60;10.70;;;;;;;21.74;43.09;100806.67;107849;1256;71405;-70
2024/04/08 06:02:54;;;;;;;19.80;9.60;;;;;;;22.11;42.38;100808.42;107868;1256;62220;-70
2024/04/08 06:05:24;;;;;;;19.00;9.30;;;;;;;22.56;41.24;100807.40;107745;1256;60418;-71
2024/04/08 06:07:53;;;;;;;18.00;8.40;;;;;;;23.08;40.31;100805.84;107843;1257;73955;-70
2024/04/08 06:10:22;;;;;;;11.40;7.70;;;;;;;23.64;39.15;100803.71;107941;1256;70676;-71
2024/04/08 06:12:50;;;;;;;17.70;8.30;;;;;;;24.20;38.33;100802.41;107870;1257;72996;-69
2024/04/08 06:15:17;;;;;;;16.10;8.10;;;;;;;24.79;37.56;100801.75;107978;1257;60313;-71
2024/04/08 06:17:44;;;;;;;12.30;7.30;;;;;;;25.50;36.41;100799.67;107955;1256;60332;-70
2024/04/08 06:20:12;;;;;;;13.80;7.70;;;;;;;26.24;35.27;100805.75;107701;1257;74019;-69
2024/04/08 06:22:39;;;;;;;19.90;7.50;;;;;;;27.05;33.70;100801.39;107907;1256;69155;-71
2024/04/08 06:25:07;;;;;;;10.80;6.30;;;;;;;27.63;32.67;100798.51;107864;1257;71711;-71
2024/04/08 06:27:34;;;;;;;11.60;5.50;;;;;;;27.88;31.37;100801.60;107747;1257;60845;-69
2024/04/08 06:30:02;;;;;;;9.90;5.20;;;;;;;27.78;30.60;100799.75;107852;1256;62009;-70
2024/04/08 06:32:29;;;;;;;13.00;6.00;;;;;;;27.72;30.91;100804.62;107812;1257;74755;-71
2024/04/08 06:34:58;;;;;;;11.10;5.20;;;;;;;28.14;30.89;100805.75;107829;1256;68976;-71
2024/04/08 06:37:25;;;;;;;10.40;6.50;;;;;;;28.63;30.03;100807.77;107833;1257;72758;-71
2024/04/08 06:39:52;;;;;;;14.50;7.40;;;;;;;29.11;29.47;100810.48;107738;1257;60505;-71
2024/04/08 06:42:20;;;;;;;12.50;6.00;;;;;;;29.34;28.80;100812.94;107708;1256;60450;-70
2024/04/08 06:44:51;;;;;;;12.20;6.60;;;;;;;29.50;28.78;100814.50;107641;1262;76113;-70
2024/04/08 06:47:21;;;;;;;16.70;7.20;;;;;;;29.60;28.48;100807.96;107719;1256;70763;-72
2024/04/08 06:49:49;;;;;;;16.80;8.30;;;;;;;29.78;28.43;100807.86;107689;1257;72849;-70
2024/04/08 06:52:16;;;;;;;12.10;7.30;;;;;;;30.03;27.94;100808.61;107750;1257;60326;-70
2024/04/08 06:54:43;;;;;;;11.80;6.00;;;;;;;30.38;27.39;100799.60;107737;1257;60286;-70
2024/04/08 06:57:11;;;;;;;11.30;5.60;;;;;;;30.60;26.90;100801.43;107788;1256;73942;-70
2024/04/08 06:59:38;;;;;;;11.20;6.10;;;;;;;30.63;26.77;100795.34;107609;1256;69818;-71
2024/04/08 07:02:05;;;;;;;14.20;6.20;;;;;;;30.83;26.72;100790.36;107693;1256;71475;-71
2024/04/08 07:04:33;;;;;;;12.20;5.50;;;;;;;31.22;26.56;100790.89;107674;1257;60694;-71
2024/04/08 07:07:00;;;;;;;18.90;6.50;;;;;;;31.66;26.03;100788.45;107727;1257;60331;-71
2024/04/08 07:09:29;;;;;;;11.20;4.70;;;;;;;31.93;25.73;100791.19;107668;1257;72610;-70
2024/04/08 07:11:57;;;;;;;11.60;5.40;;;;;;;32.14;25.55;100787.89;107748;1256;69722;-69
2024/04/08 07:14:27;;;;;;;8.80;4.30;;;;;;;32.45;25.37;100789.83;107699;1257;72070;-70
2024/04/08 07:16:55;;;;;;;11.40;4.90;;;;;;;32.62;24.70;100793.20;107690;1257;60409;-70
2024/04/08 07:19:22;;;;;;;11.10;4.50;;;;;;;32.56;24.50;100789.85;107760;1256;60361;-70
2024/04/08 07:21:49;;;;;;;12.20;4.50;;;;;;;32.54;24.35;100791.49;107722;1256;76095;-72
2024/04/08 07:24:21;;;;;;;8.30;3.80;;;;;;;32.48;24.62;100788.19;107785;1256;71073;-68
2024/04/08 07:26:48;;;;;;;9.00;3.90;;;;;;;32.38;24.61;100788.67;107766;1256;72755;-70
2024/04/08 07:29:15;;;;;;;10.90;4.20;;;;;;;32.40;24.55;100790.16;107818;1256;59931;-70
2024/04/08 07:31:42;;;;;;;12.70;4.10;;;;;;;32.53;24.82;100788.57;107817;1257;60379;-70
2024/04/08 07:34:10;;;;;;;14.70;3.40;;;;;;;32.84;24.30;100783.16;107813;1256;74005;-72
2024/04/08 07:36:37;;;;;;;6.50;2.90;;;;;;;33.03;23.92;100779.14;107873;1257;69212;-71
2024/04/08 07:39:05;;;;;;;6.10;3.30;;;;;;;32.91;23.97;100776.77;107990;1256;71622;-70
2024/04/08 07:41:38;;;;;;;9.90;3.90;;;;;;;33.02;23.57;100779.19;108059;1256;61202;-70
2024/04/08 07:44:07;;;;;;;11.70;3.00;;;;;;;33.19;23.75;100781.77;107934;1256;61352;-71
2024/04/08 07:46:34;;;;;;;7.60;3.00;;;;;;;33.49;23.14;100776.10;107956;1255;65118;-71
2024/04/08 07:49:02;;;;;;;6.10;2.80;;;;;;;33.81;22.70;100773.04;107899;1257;62664;-70
2024/04/08 07:51:29;;;;;;;6.20;2.30;;;;;;;34.19;22.80;100768.04;107927;1257;71772;-70
2024/04/08 07:53:56;;;;;;;5.80;2.30;;;;;;;34.68;22.11;100767.05;108102;1254;61295;-70
2024/04/08 07:56:24;;;;;;;6.80;2.10;;;;;;;35.21;21.27;100759.57;108068;1254;59043;-70
2024/04/08 07:58:51;;;;;;;5.40;2.10;;;;;;;35.64;21.09;100760.77;108116;1254;67945;-71
2024/04/08 08:01:18;;;;;;;5.40;2.20;;;;;;;35.86;20.21;100761.59;108096;1254;61575;-70
2024/04/08 08:03:46;;;;;;;4.20;1.70;;;;;;;35.69;19.88;100766.17;108160;1254;64348;-71
2024/04/08 08:06:14;;;;;;;5.40;2.00;;;;;;;35.23;20.14;100767.02;108078;1256;61106;-71
2024/04/08 08:08:42;;;;;;;3.20;1.60;;;;;;;34.60;20.51;100772.50;108000;1254;60969;-70
2024/04/08 08:11:10;;;;;;;5.20;1.70;;;;;;;34.31;20.43;100772.90;108059;1254;67857;-71
2024/04/08 08:13:37;;;;;;;5.10;1.60;;;;;;;34.48;20.87;100774.35;108057;1254;61916;-70
2024/04/08 08:16:05;;;;;;;8.30;1.90;;;;;;;34.82;20.63;100766.11;108056;1254;63950;-71
2024/04/08 08:18:34;;;;;;;6.70;2.20;;;;;;;35.06;20.26;100762.48;107977;1254;61223;-71
2024/04/08 08:21:02;;;;;;;5.50;1.90;;;;;;;35.17;20.12;100764.86;108006;1254;61100;-69
2024/04/08 08:23:30;;;;;;;5.10;2.10;;;;;;;34.79;20.29;100768.56;108039;1254;64819;-69
2024/04/08 08:25:58;;;;;;;4.70;2.10;;;;;;;34.41;20.76;100769.06;108042;1254;61295;-71
2024/04/08 08:28:26;;;;;;;5.10;1.60;;;;;;;34.59;20.92;100769.71;108019;1257;62794;-70
2024/04/08 08:30:53;;;;;;;5.80;2.00;;;;;;;34.92;20.13;100769.08;107976;1254;61144;-71
2024/04/08 08:33:21;;;;;;;4.40;1.50;;;;;;;35.26;19.43;100770.05;108089;1254;61137;-71
2024/04/08 08:35:49;;;;;;;4.90;1.70;;;;;;;35.27;19.21;100772.97;107944;1255;67911;-70
2024/04/08 08:38:16;;;;;;;8.40;1.90;;;;;;;35.29;19.51;100766.86;107872;1257;69267;-71
2024/04/08 08:40:44;;;;;;;4.60;1.80;;;;;;;35.51;19.48;100765.27;107805;1257;74101;-70
2024/04/08 08:43:11;;;;;;;4.70;1.60;;;;;;;35.82;19.02;100763.94;107789;1256;61247;-70
2024/04/08 08:45:46;;;;;;;5.00;1.60;;;;;;;36.09;18.82;100760.61;107807;1257;61129;-71
2024/04/08 08:48:14;;;;;;;5.40;1.80;;;;;;;36.18;18.59;100759.77;107812;1257;65819;-72
2024/04/08 08:50:44;;;;;;;5.20;1.50;;;;;;;36.25;18.36;100760.48;107883;1256;61532;-70
2024/04/08 08:53:12;;;;;;;5.40;1.70;;;;;;;36.09;17.97;100758.52;107922;1257;63942;-69
2024/04/08 08:55:39;;;;;;;7.90;2.30;;;;;;;35.99;18.08;100755.13;107793;1255;61164;-70
2024/04/08 08:58:07;;;;;;;7.80;2.10;;;;;;;35.99;18.27;100754.45;107829;1257;61148;-71
2024/04/08 09:00:37;;;;;;;5.20;1.70;;;;;;;35.92;18.30;100753.55;107872;1256;64641;-71
2024/04/08 09:03:05;;;;;;;;;;;;;;;35.81;18.24;100747.47;107896;1257;61581;-71
2024/04/08 09:05:32;;;;;;;8.60;2.00;;;;;;;35.60;18.52;100746.55;107811;1257;62621;-70
2024/04/08 09:08:00;;;;;;;5.70;1.70;;;;;;;35.36;18.51;100747.21;107891;1257;61148;-71
2024/04/08 09:10:27;;;;;;;9.40;2.40;;;;;;;34.73;19.23;100746.54;107889;1257;61162;-71
2024/04/08 09:12:54;;;;;;;6.70;2.20;;;;;;;34.01;19.99;100747.02;107937;1256;64494;-72
2024/04/08 09:15:23;;;;;;;7.20;2.30;;;;;;;33.12;20.61;100747.77;107814;1257;71387;-71
2024/04/08 09:18:03;;;;;;;7.80;2.60;;;;;;;32.56;21.31;100746.30;107772;1258;72724;-73
2024/04/08 09:20:31;;;;;;;9.90;3.00;;;;;;;32.41;21.55;100746.73;107870;1257;61157;-71
2024/04/08 09:22:58;;;;;;;7.50;3.20;;;;;;;32.41;21.66;100740.85;107831;1257;61152;-71
2024/04/08 09:25:25;;;;;;;7.80;2.90;;;;;;;32.57;21.54;100731.52;107889;1256;75169;-70
2024/04/08 09:27:53;;;;;;;10.80;3.10;;;;;;;32.61;21.49;100733.05;107648;1256;70984;-70
2024/04/08 09:30:22;;;;;;;5.60;2.40;;;;;;;32.64;21.63;100728.73;107707;1257;71810;-70
2024/04/08 09:32:49;;;;;;;10.00;3.50;;;;;;;32.58;21.54;100731.23;107672;1256;61769;-70
2024/04/08 09:35:16;;;;;;;11.30;3.30;;;;;;;32.85;21.47;100728.97;107710;1255;61184;-71
2024/04/08 09:37:44;;;;;;;8.10;3.60;;;;;;;33.37;21.03;100727.33;107745;1261;73427;-71
2024/04/08 09:40:11;;;;;;;11.50;3.40;;;;;;;33.77;20.54;100723.96;107668;1256;62432;-72
2024/04/08 09:42:38;;;;;;;10.10;3.60;;;;;;;34.14;20.43;100719.64;107616;1257;64101;-70
2024/04/08 09:45:06;;;;;;;9.90;3.90;;;;;;;34.44;19.88;100713.86;107747;1261;61201;-70
2024/04/08 09:47:33;;;;;;;8.70;4.30;;;;;;;34.69;19.75;100704.50;107755;1257;60907;-70
2024/04/08 09:50:01;;;;;;;9.90;3.40;;;;;;;34.98;19.52;100704.16;107633;1256;64523;-70
2024/04/08 09:52:31;;;;;;;9.50;3.20;;;;;;;35.18;19.24;100701.58;107800;1257;61711;-71
2024/04/08 09:54:59;;;;;;;9.80;3.30;;;;;;;35.27;19.43;100697.62;107745;1257;62886;-70
2024/04/08 09:57:27;;;;;;;8.30;3.50;;;;;;;35.53;19.07;100693.65;107834;1257;61039;-70
2024/04/08 09:59:56;;;;;;;7.80;2.90;;;;;;;35.50;18.37;100693.84;107795;1256;59603;-71
2024/04/08 10:02:36;;;;;;;6.00;2.10;;;;;;;35.33;18.57;100690.55;107766;1257;65814;-71
2024/04/08 10:05:04;;;;;;;13.20;2.60;;;;;;;35.14;18.84;100690.23;107826;1257;61115;-70
2024/04/08 10:07:32;;;;;;;9.20;3.20;;;;;;;34.67;19.34;100693.63;107824;1257;74833;-70
2024/04/08 10:10:03;;;;;;;7.20;3.10;;;;;;;34.21;19.48;100697.06;107734;1256;61128;-70
2024/04/08 10:12:31;;;;;;;6.00;2.30;;;;;;;34.12;18.81;100697.84;107752;1255;59356;-71
2024/04/08 10:15:15;;;;;;;6.10;2.20;;;;;;;34.33;19.03;100696.08;107761;1257;64796;-71
2024/04/08 10:17:43;;;;;;;5.80;2.00;;;;;;;34.48;18.40;100686.80;107729;1257;61679;-71
2024/04/08 10:20:20;;;;;;;9.70;2.90;;;;;;;34.60;18.17;100679.40;107745;1257;62523;-69
2024/04/08 10:22:48;;;;;;;4.70;2.20;;;;;;;34.76;18.33;100679.93;107749;1256;61042;-70
2024/04/08 10:25:36;;;;;;;7.50;2.30;;;;;;;34.69;18.09;100681.91;107745;1256;61196;-70
2024/04/08 10:28:09;;;;;;;6.60;2.70;;;;;;;34.68;18.37;100676.98;107707;1256;66927;-70
2024/04/08 10:30:38;;;;;;;6.60;2.10;;;;;;;34.83;18.22;100670.36;107919;1257;61675;-71
2024/04/08 10:33:06;;;;;;;6.10;2.10;;;;;;;34.94;18.18;100664.27;107874;1257;62699;-71
2024/04/08 10:35:33;;;;;;;4.40;2.10;;;;;;;35.14;18.41;100664.33;107835;1260;61138;-71
2024/04/08 10:38:00;;;;;;;4.70;1.90;;;;;;;35.33;17.67;100664.36;107867;1255;61155;-71
2024/04/08 10:40:28;;;;;;;6.10;2.40;;;;;;;35.35;17.53;100663.42;107862;1256;65879;-70
2024/04/08 10:42:58;;;;;;;6.30;2.40;;;;;;;34.84;17.94;100659.05;107777;1257;61582;-70
2024/04/08 10:45:25;;;;;;;5.80;2.20;;;;;;;34.50;18.63;100661.46;107944;1256;62855;-69
2024/04/08 10:47:59;;;;;;;8.80;2.30;;;;;;;34.19;18.76;100660.22;107914;1257;61135;-71
2024/04/08 10:50:31;;;;;;;7.70;2.20;;;;;;;34.00;18.71;100658.61;108040;1254;60052;-70
2024/04/08 10:52:58;;;;;;;6.80;2.10;;;;;;;33.85;19.20;100659.37;107659;1254;65911;-70
2024/04/08 10:55:25;;;;;;;7.20;1.90;;;;;;;33.93;19.00;100654.70;108027;1254;61494;-71
2024/04/08 10:57:53;;;;;;;7.10;2.30;;;;;;;34.19;18.57;100653.10;108007;1254;63826;-71
2024/04/08 11:00:20;;;;;;;7.40;2.20;;;;;;;34.32;18.24;100649.80;108035;1254;61345;-71
2024/04/08 11:02:48;;;;;;;10.40;2.60;;;;;;;34.42;18.22;100646.84;107975;1254;61154;-71
2024/04/08 11:05:15;;;;;;;6.40;2.00;;;;;;;34.40;18.29;100642.73;108076;1254;68356;-71
2024/04/08 11:07:43;;;;;;;8.20;2.20;;;;;;;34.29;18.31;100641.08;108050;1253;61194;-71
2024/04/08 11:10:13;;;;;;;8.30;2.20;;;;;;;34.19;17.96;100642.52;107873;1254;64260;-72
2024/04/08 11:12:41;;;;;;;6.70;2.10;;;;;;;33.85;18.61;100643.05;108076;1254;61899;-71
2024/04/08 11:15:11;;;;;;;6.20;2.30;;;;;;;33.53;18.93;100638.52;107998;1254;61202;-71